sensor_id;sensor_type;location;lat;lon;timestamp;pressure;altitude;pressure_sealevel;temperature;humidity
62055;BME280;48653;51.742;-1.256;2023-07-13T00:01:50;100781.18;;;17.81;47.38
62055;BME280;48653;51.742;-1.256;2023-07-13T00:04:16;100780.41;;;17.15;47.69
62055;BME280;48653;51.742;-1.256;2023-07-13T00:06:41;100781.73;;;17.03;47.64
62055;BME280;48653;51.742;-1.256;2023-07-13T00:09:06;100779.89;;;17.54;47.24
62055;BME280;48653;51.742;-1.256;2023-07-13T00:11:31;100776.43;;;17.11;48.18
62055;BME280;48653;51.742;-1.256;2023-07-13T00:13:57;100778.90;;;16.86;48.52
62055;BME280;48653;51.742;-1.256;2023-07-13T00:16:22;100777.65;;;16.91;48.03
62055;BME280;48653;51.742;-1.256;2023-07-13T00:18:47;100776.66;;;16.57;49.44
62055;BME280;48653;51.742;-1.256;2023-07-13T00:21:12;100773.66;;;16.62;49.36
62055;BME280;48653;51.742;-1.256;2023-07-13T00:23:41;100776.53;;;16.64;49.69
62055;BME280;48653;51.742;-1.256;2023-07-13T00:26:03;100777.81;;;17.01;49.16
62055;BME280;48653;51.742;-1.256;2023-07-13T00:28:27;100780.14;;;16.63;49.18
62055;BME280;48653;51.742;-1.256;2023-07-13T00:30:52;100781.83;;;16.82;48.50
62055;BME280;48653;51.742;-1.256;2023-07-13T00:33:17;100776.72;;;17.46;47.65
62055;BME280;48653;51.742;-1.256;2023-07-13T00:35:43;100774.81;;;17.36;47.47
62055;BME280;48653;51.742;-1.256;2023-07-13T00:38:08;100773.42;;;16.99;48.56
62055;BME280;48653;51.742;-1.256;2023-07-13T00:40:33;100773.52;;;16.75;49.04
62055;BME280;48653;51.742;-1.256;2023-07-13T00:42:59;100772.96;;;16.24;49.73
62055;BME280;48653;51.742;-1.256;2023-07-13T00:47:49;100768.77;;;16.93;48.37
62055;BME280;48653;51.742;-1.256;2023-07-13T00:50:16;100770.76;;;16.80;49.34
62055;BME280;48653;51.742;-1.256;2023-07-13T00:52:41;100772.74;;;16.11;50.92
62055;BME280;48653;51.742;-1.256;2023-07-13T00:55:05;100777.01;;;16.84;49.60
62055;BME280;48653;51.742;-1.256;2023-07-13T00:57:29;100774.64;;;16.48;50.23
62055;BME280;48653;51.742;-1.256;2023-07-13T00:59:58;100773.96;;;16.69;49.93
62055;BME280;48653;51.742;-1.256;2023-07-13T01:02:19;100773.84;;;16.17;50.03
62055;BME280;48653;51.742;-1.256;2023-07-13T01:04:44;100774.55;;;16.56;50.35
62055;BME280;48653;51.742;-1.256;2023-07-13T01:07:10;100775.61;;;16.73;49.97
62055;BME280;48653;51.742;-1.256;2023-07-13T01:09:34;100772.45;;;17.40;48.73
62055;BME280;48653;51.742;-1.256;2023-07-13T01:12:00;100775.30;;;16.73;48.83
62055;BME280;48653;51.742;-1.256;2023-07-13T01:14:25;100772.21;;;16.63;49.78
62055;BME280;48653;51.742;-1.256;2023-07-13T01:16:51;100773.59;;;16.79;50.08
62055;BME280;48653;51.742;-1.256;2023-07-13T01:19:25;100770.37;;;16.80;49.50
62055;BME280;48653;51.742;-1.256;2023-07-13T01:21:41;100772.82;;;16.76;50.03
62055;BME280;48653;51.742;-1.256;2023-07-13T01:24:06;100770.92;;;16.68;49.89
62055;BME280;48653;51.742;-1.256;2023-07-13T01:26:32;100772.03;;;16.92;49.73
62055;BME280;48653;51.742;-1.256;2023-07-13T01:28:57;100767.53;;;17.16;48.87
62055;BME280;48653;51.742;-1.256;2023-07-13T01:31:22;100768.29;;;16.82;49.81
62055;BME280;48653;51.742;-1.256;2023-07-13T01:33:47;100767.81;;;16.63;49.67
62055;BME280;48653;51.742;-1.256;2023-07-13T01:36:12;100766.24;;;16.58;50.07
62055;BME280;48653;51.742;-1.256;2023-07-13T01:38:37;100766.39;;;17.33;48.45
62055;BME280;48653;51.742;-1.256;2023-07-13T01:41:03;100768.36;;;16.76;49.05
62055;BME280;48653;51.742;-1.256;2023-07-13T01:43:28;100761.57;;;16.93;48.76
62055;BME280;48653;51.742;-1.256;2023-07-13T01:45:53;100763.72;;;16.64;50.06
62055;BME280;48653;51.742;-1.256;2023-07-13T01:48:18;100761.90;;;16.80;49.20
62055;BME280;48653;51.742;-1.256;2023-07-13T01:50:43;100763.28;;;16.69;49.90
62055;BME280;48653;51.742;-1.256;2023-07-13T01:53:09;100761.11;;;16.68;50.17
62055;BME280;48653;51.742;-1.256;2023-07-13T01:55:34;100755.83;;;16.66;50.07
62055;BME280;48653;51.742;-1.256;2023-07-13T01:57:58;100754.21;;;16.80;49.85
62055;BME280;48653;51.742;-1.256;2023-07-13T02:00:24;100757.00;;;16.88;49.13
62055;BME280;48653;51.742;-1.256;2023-07-13T02:02:49;100758.93;;;16.72;49.47
62055;BME280;48653;51.742;-1.256;2023-07-13T02:05:14;100760.57;;;16.81;49.67
62055;BME280;48653;51.742;-1.256;2023-07-13T02:07:39;100757.53;;;16.71;49.64
62055;BME280;48653;51.742;-1.256;2023-07-13T02:10:05;100758.52;;;16.61;49.16
62055;BME280;48653;51.742;-1.256;2023-07-13T02:12:29;100755.27;;;16.56;49.44
62055;BME280;48653;51.742;-1.256;2023-07-13T02:14:54;100753.40;;;16.56;49.57
62055;BME280;48653;51.742;-1.256;2023-07-13T02:17:19;100751.51;;;16.67;49.19
62055;BME280;48653;51.742;-1.256;2023-07-13T02:19:45;100755.06;;;16.36;50.28
62055;BME280;48653;51.742;-1.256;2023-07-13T02:22:10;100753.17;;;16.08;49.91
62055;BME280;48653;51.742;-1.256;2023-07-13T02:24:35;100749.18;;;15.60;51.47
62055;BME280;48653;51.742;-1.256;2023-07-13T02:27:00;100745.95;;;16.07;50.65
62055;BME280;48653;51.742;-1.256;2023-07-13T02:29:26;100748.25;;;15.73;51.20
62055;BME280;48653;51.742;-1.256;2023-07-13T02:31:51;100747.43;;;15.60;51.43
62055;BME280;48653;51.742;-1.256;2023-07-13T02:34:16;100747.33;;;16.01;50.96
62055;BME280;48653;51.742;-1.256;2023-07-13T02:36:41;100747.56;;;15.73;50.74
62055;BME280;48653;51.742;-1.256;2023-07-13T02:39:07;100748.64;;;15.28;51.31
62055;BME280;48653;51.742;-1.256;2023-07-13T02:41:32;100753.87;;;15.04;53.29
62055;BME280;48653;51.742;-1.256;2023-07-13T02:43:58;100749.22;;;15.71;52.03
62055;BME280;48653;51.742;-1.256;2023-07-13T02:46:21;100745.13;;;15.86;51.35
62055;BME280;48653;51.742;-1.256;2023-07-13T02:48:47;100745.39;;;15.76;51.92
62055;BME280;48653;51.742;-1.256;2023-07-13T02:51:12;100750.36;;;15.06;53.63
62055;BME280;48653;51.742;-1.256;2023-07-13T02:53:38;100741.89;;;15.22;52.83
62055;BME280;48653;51.742;-1.256;2023-07-13T02:56:03;100745.66;;;15.42;52.22
62055;BME280;48653;51.742;-1.256;2023-07-13T02:58:28;100748.77;;;16.04;51.13
62055;BME280;48653;51.742;-1.256;2023-07-13T03:00:55;100750.60;;;15.89;50.95
62055;BME280;48653;51.742;-1.256;2023-07-13T03:03:18;100754.95;;;16.18;50.21
62055;BME280;48653;51.742;-1.256;2023-07-13T03:05:45;100755.16;;;15.78;51.78
62055;BME280;48653;51.742;-1.256;2023-07-13T03:08:09;100752.26;;;15.70;51.05
62055;BME280;48653;51.742;-1.256;2023-07-13T03:10:34;100745.67;;;15.89;50.30
62055;BME280;48653;51.742;-1.256;2023-07-13T03:12:59;100749.65;;;15.67;51.02
62055;BME280;48653;51.742;-1.256;2023-07-13T03:15:25;100750.18;;;15.80;50.83
62055;BME280;48653;51.742;-1.256;2023-07-13T03:17:50;100754.32;;;15.55;51.56
62055;BME280;48653;51.742;-1.256;2023-07-13T03:20:15;100756.45;;;15.55;51.49
62055;BME280;48653;51.742;-1.256;2023-07-13T03:22:40;100754.15;;;15.74;50.79
62055;BME280;48653;51.742;-1.256;2023-07-13T03:25:06;100753.64;;;16.05;50.49
62055;BME280;48653;51.742;-1.256;2023-07-13T03:27:30;100753.07;;;15.98;49.41
62055;BME280;48653;51.742;-1.256;2023-07-13T03:29:55;100753.83;;;16.38;49.54
62055;BME280;48653;51.742;-1.256;2023-07-13T03:32:20;100756.36;;;15.63;50.42
62055;BME280;48653;51.742;-1.256;2023-07-13T03:34:45;100760.29;;;15.89;49.96
62055;BME280;48653;51.742;-1.256;2023-07-13T03:37:11;100763.93;;;15.26;51.81
62055;BME280;48653;51.742;-1.256;2023-07-13T03:39:36;100768.08;;;15.08;52.91
62055;BME280;48653;51.742;-1.256;2023-07-13T03:42:01;100769.36;;;15.52;51.61
62055;BME280;48653;51.742;-1.256;2023-07-13T03:44:26;100769.13;;;15.87;50.99
62055;BME280;48653;51.742;-1.256;2023-07-13T03:46:51;100768.67;;;16.15;50.26
62055;BME280;48653;51.742;-1.256;2023-07-13T03:49:17;100770.59;;;15.52;50.95
62055;BME280;48653;51.742;-1.256;2023-07-13T03:51:42;100775.67;;;15.94;50.92
62055;BME280;48653;51.742;-1.256;2023-07-13T03:54:07;100780.40;;;16.11;49.62
62055;BME280;48653;51.742;-1.256;2023-07-13T03:56:32;100776.93;;;16.01;50.42
62055;BME280;48653;51.742;-1.256;2023-07-13T03:58:57;100777.82;;;16.28;50.44
62055;BME280;48653;51.742;-1.256;2023-07-13T04:01:23;100780.00;;;15.99;51.20
62055;BME280;48653;51.742;-1.256;2023-07-13T04:03:48;100781.71;;;15.73;51.55
62055;BME280;48653;51.742;-1.256;2023-07-13T04:06:16;100783.42;;;15.86;50.95
62055;BME280;48653;51.742;-1.256;2023-07-13T04:08:38;100780.20;;;16.16;50.52
62055;BME280;48653;51.742;-1.256;2023-07-13T04:11:04;100783.89;;;16.49;50.02
62055;BME280;48653;51.742;-1.256;2023-07-13T04:13:28;100789.76;;;15.94;50.93
62055;BME280;48653;51.742;-1.256;2023-07-13T04:15:54;100785.77;;;15.77;50.99
62055;BME280;48653;51.742;-1.256;2023-07-13T04:18:19;100782.93;;;15.99;50.90
62055;BME280;48653;51.742;-1.256;2023-07-13T04:20:44;100782.32;;;15.98;50.26
62055;BME280;48653;51.742;-1.256;2023-07-13T04:23:09;100788.65;;;16.05;51.14
62055;BME280;48653;51.742;-1.256;2023-07-13T04:25:34;100790.63;;;15.80;51.21
62055;BME280;48653;51.742;-1.256;2023-07-13T04:27:59;100794.17;;;16.09;50.40
62055;BME280;48653;51.742;-1.256;2023-07-13T04:30:25;100793.59;;;15.86;51.02
62055;BME280;48653;51.742;-1.256;2023-07-13T04:32:51;100793.16;;;16.37;50.61
62055;BME280;48653;51.742;-1.256;2023-07-13T04:35:15;100794.90;;;16.16;50.68
62055;BME280;48653;51.742;-1.256;2023-07-13T04:37:40;100798.87;;;15.88;49.82
62055;BME280;48653;51.742;-1.256;2023-07-13T04:40:06;100799.79;;;16.46;49.66
62055;BME280;48653;51.742;-1.256;2023-07-13T04:42:30;100806.91;;;15.25;52.38
62055;BME280;48653;51.742;-1.256;2023-07-13T04:44:56;100806.50;;;16.07;51.31
62055;BME280;48653;51.742;-1.256;2023-07-13T04:47:21;100806.01;;;15.76;51.68
62055;BME280;48653;51.742;-1.256;2023-07-13T04:49:46;100805.39;;;15.95;50.53
62055;BME280;48653;51.742;-1.256;2023-07-13T04:52:11;100806.79;;;16.03;50.84
62055;BME280;48653;51.742;-1.256;2023-07-13T04:54:36;100806.89;;;15.89;50.59
62055;BME280;48653;51.742;-1.256;2023-07-13T04:57:01;100805.50;;;16.16;50.64
62055;BME280;48653;51.742;-1.256;2023-07-13T04:59:27;100805.17;;;16.19;49.93
62055;BME280;48653;51.742;-1.256;2023-07-13T05:01:52;100807.52;;;16.09;49.78
62055;BME280;48653;51.742;-1.256;2023-07-13T05:04:17;100813.64;;;16.33;50.01
62055;BME280;48653;51.742;-1.256;2023-07-13T05:06:42;100818.91;;;16.24;50.42
62055;BME280;48653;51.742;-1.256;2023-07-13T05:09:07;100823.64;;;16.35;50.00
62055;BME280;48653;51.742;-1.256;2023-07-13T05:11:32;100818.45;;;16.47;50.00
62055;BME280;48653;51.742;-1.256;2023-07-13T05:13:57;100821.72;;;16.24;50.22
62055;BME280;48653;51.742;-1.256;2023-07-13T05:16:22;100821.19;;;16.42;50.76
62055;BME280;48653;51.742;-1.256;2023-07-13T05:18:47;100816.91;;;16.44;50.17
62055;BME280;48653;51.742;-1.256;2023-07-13T05:21:12;100818.68;;;16.21;50.66
62055;BME280;48653;51.742;-1.256;2023-07-13T05:23:37;100828.34;;;16.20;50.64
62055;BME280;48653;51.742;-1.256;2023-07-13T05:26:04;100830.73;;;16.08;50.95
62055;BME280;48653;51.742;-1.256;2023-07-13T05:28:29;100831.67;;;16.35;50.32
62055;BME280;48653;51.742;-1.256;2023-07-13T05:30:52;100836.53;;;16.30;50.75
62055;BME280;48653;51.742;-1.256;2023-07-13T05:33:18;100840.67;;;16.29;50.56
62055;BME280;48653;51.742;-1.256;2023-07-13T05:35:43;100837.48;;;16.57;49.92
62055;BME280;48653;51.742;-1.256;2023-07-13T05:38:08;100835.35;;;16.32;50.81
62055;BME280;48653;51.742;-1.256;2023-07-13T05:40:33;100838.27;;;16.65;50.33
62055;BME280;48653;51.742;-1.256;2023-07-13T05:42:58;100840.05;;;16.46;49.85
62055;BME280;48653;51.742;-1.256;2023-07-13T05:45:24;100842.23;;;16.59;50.44
62055;BME280;48653;51.742;-1.256;2023-07-13T05:47:48;100844.70;;;16.12;51.04
62055;BME280;48653;51.742;-1.256;2023-07-13T05:50:14;100843.87;;;16.71;50.72
62055;BME280;48653;51.742;-1.256;2023-07-13T05:52:39;100844.87;;;17.15;49.79
62055;BME280;48653;51.742;-1.256;2023-07-13T05:55:04;100845.84;;;17.10;49.87
62055;BME280;48653;51.742;-1.256;2023-07-13T05:57:30;100850.51;;;16.72;50.16
62055;BME280;48653;51.742;-1.256;2023-07-13T05:59:54;100853.06;;;16.98;50.67
62055;BME280;48653;51.742;-1.256;2023-07-13T06:02:19;100860.08;;;16.96;50.68
62055;BME280;48653;51.742;-1.256;2023-07-13T06:04:44;100861.81;;;16.77;50.03
62055;BME280;48653;51.742;-1.256;2023-07-13T06:07:09;100865.30;;;16.47;51.10
62055;BME280;48653;51.742;-1.256;2023-07-13T06:09:34;100868.45;;;16.80;50.37
62055;BME280;48653;51.742;-1.256;2023-07-13T06:11:59;100870.40;;;16.93;51.41
62055;BME280;48653;51.742;-1.256;2023-07-13T06:14:25;100868.29;;;16.79;51.29
62055;BME280;48653;51.742;-1.256;2023-07-13T06:16:50;100869.87;;;17.11;51.91
62055;BME280;48653;51.742;-1.256;2023-07-13T06:19:16;100869.43;;;17.18;51.49
62055;BME280;48653;51.742;-1.256;2023-07-13T06:21:41;100872.05;;;16.95;51.71
62055;BME280;48653;51.742;-1.256;2023-07-13T06:24:06;100872.44;;;17.28;51.95
62055;BME280;48653;51.742;-1.256;2023-07-13T06:26:31;100872.80;;;16.67;52.28
62055;BME280;48653;51.742;-1.256;2023-07-13T06:28:56;100868.57;;;16.98;51.61
62055;BME280;48653;51.742;-1.256;2023-07-13T06:31:22;100870.58;;;17.06;51.31
62055;BME280;48653;51.742;-1.256;2023-07-13T06:33:47;100872.66;;;16.87;52.02
62055;BME280;48653;51.742;-1.256;2023-07-13T06:36:12;100880.64;;;17.70;51.52
62055;BME280;48653;51.742;-1.256;2023-07-13T06:38:37;100885.52;;;17.23;52.30
62055;BME280;48653;51.742;-1.256;2023-07-13T06:41:02;100890.14;;;17.51;51.40
62055;BME280;48653;51.742;-1.256;2023-07-13T06:43:27;100895.64;;;17.60;51.13
62055;BME280;48653;51.742;-1.256;2023-07-13T06:45:55;100896.46;;;17.66;50.81
62055;BME280;48653;51.742;-1.256;2023-07-13T06:48:18;100892.59;;;17.80;50.65
62055;BME280;48653;51.742;-1.256;2023-07-13T06:50:43;100894.52;;;17.93;49.97
62055;BME280;48653;51.742;-1.256;2023-07-13T06:53:08;100893.74;;;17.70;49.97
62055;BME280;48653;51.742;-1.256;2023-07-13T06:55:33;100896.42;;;18.06;49.95
62055;BME280;48653;51.742;-1.256;2023-07-13T06:57:58;100896.96;;;17.86;50.67
62055;BME280;48653;51.742;-1.256;2023-07-13T07:00:23;100893.78;;;18.00;50.75
62055;BME280;48653;51.742;-1.256;2023-07-13T07:02:48;100900.08;;;17.93;50.62
62055;BME280;48653;51.742;-1.256;2023-07-13T07:05:14;100902.65;;;17.63;51.13
62055;BME280;48653;51.742;-1.256;2023-07-13T07:07:39;100904.23;;;17.60;50.82
62055;BME280;48653;51.742;-1.256;2023-07-13T07:10:05;100900.88;;;18.19;49.74
62055;BME280;48653;51.742;-1.256;2023-07-13T07:12:29;100904.64;;;18.22;49.41
62055;BME280;48653;51.742;-1.256;2023-07-13T07:14:54;100904.81;;;18.23;49.45
62055;BME280;48653;51.742;-1.256;2023-07-13T07:17:19;100901.74;;;18.37;50.15
62055;BME280;48653;51.742;-1.256;2023-07-13T07:19:44;100905.16;;;18.75;48.39
62055;BME280;48653;51.742;-1.256;2023-07-13T07:22:09;100903.21;;;18.45;49.77
62055;BME280;48653;51.742;-1.256;2023-07-13T07:24:34;100908.48;;;18.39;49.81
62055;BME280;48653;51.742;-1.256;2023-07-13T07:27:00;100910.87;;;18.90;48.64
62055;BME280;48653;51.742;-1.256;2023-07-13T07:29:25;100910.31;;;19.07;47.64
62055;BME280;48653;51.742;-1.256;2023-07-13T07:31:50;100914.53;;;19.04;47.78
62055;BME280;48653;51.742;-1.256;2023-07-13T07:34:15;100919.26;;;19.29;47.44
62055;BME280;48653;51.742;-1.256;2023-07-13T07:36:40;100919.83;;;18.80;48.23
62055;BME280;48653;51.742;-1.256;2023-07-13T07:39:05;100922.34;;;18.93;48.31
62055;BME280;48653;51.742;-1.256;2023-07-13T07:41:31;100920.62;;;18.67;48.97
62055;BME280;48653;51.742;-1.256;2023-07-13T07:43:56;100927.76;;;19.33;48.09
62055;BME280;48653;51.742;-1.256;2023-07-13T07:46:21;100927.16;;;18.80;47.86
62055;BME280;48653;51.742;-1.256;2023-07-13T07:48:46;100926.03;;;18.10;49.31
62055;BME280;48653;51.742;-1.256;2023-07-13T07:51:11;100927.48;;;18.58;49.19
62055;BME280;48653;51.742;-1.256;2023-07-13T07:53:37;100930.45;;;18.93;47.83
62055;BME280;48653;51.742;-1.256;2023-07-13T07:56:02;100930.68;;;18.21;48.41
62055;BME280;48653;51.742;-1.256;2023-07-13T07:58:28;100931.62;;;18.96;47.54
62055;BME280;48653;51.742;-1.256;2023-07-13T08:00:52;100929.64;;;18.55;48.46
62055;BME280;48653;51.742;-1.256;2023-07-13T08:03:17;100928.84;;;18.60;47.40
62055;BME280;48653;51.742;-1.256;2023-07-13T08:05:43;100923.30;;;19.39;46.70
62055;BME280;48653;51.742;-1.256;2023-07-13T08:08:08;100923.54;;;19.88;46.36
62055;BME280;48653;51.742;-1.256;2023-07-13T08:10:36;100923.92;;;19.66;46.49
62055;BME280;48653;51.742;-1.256;2023-07-13T08:12:59;100929.73;;;20.20;46.13
62055;BME280;48653;51.742;-1.256;2023-07-13T08:15:23;100930.57;;;20.06;47.01
62055;BME280;48653;51.742;-1.256;2023-07-13T08:17:49;100926.99;;;20.23;44.68
62055;BME280;48653;51.742;-1.256;2023-07-13T08:20:14;100930.13;;;20.89;44.02
62055;BME280;48653;51.742;-1.256;2023-07-13T08:22:39;100930.37;;;20.13;45.73
62055;BME280;48653;51.742;-1.256;2023-07-13T08:25:05;100932.82;;;19.93;45.00
62055;BME280;48653;51.742;-1.256;2023-07-13T08:27:30;100932.60;;;20.04;43.90
62055;BME280;48653;51.742;-1.256;2023-07-13T08:29:55;100927.67;;;19.12;44.62
62055;BME280;48653;51.742;-1.256;2023-07-13T08:32:21;100929.95;;;20.07;44.10
62055;BME280;48653;51.742;-1.256;2023-07-13T08:34:45;100927.14;;;20.07;44.34
62055;BME280;48653;51.742;-1.256;2023-07-13T08:37:10;100927.63;;;20.45;43.21
62055;BME280;48653;51.742;-1.256;2023-07-13T08:39:35;100927.71;;;20.25;43.23
62055;BME280;48653;51.742;-1.256;2023-07-13T08:42:03;100927.59;;;20.50;43.60
62055;BME280;48653;51.742;-1.256;2023-07-13T08:44:34;100924.48;;;21.47;42.01
62055;BME280;48653;51.742;-1.256;2023-07-13T08:46:52;100923.39;;;22.07;41.10
62055;BME280;48653;51.742;-1.256;2023-07-13T08:49:21;100924.90;;;21.65;41.18
62055;BME280;48653;51.742;-1.256;2023-07-13T08:51:44;100919.69;;;21.54;41.88
62055;BME280;48653;51.742;-1.256;2023-07-13T08:54:26;100921.47;;;21.49;40.67
62055;BME280;48653;51.742;-1.256;2023-07-13T08:56:32;100925.20;;;21.74;41.56
62055;BME280;48653;51.742;-1.256;2023-07-13T08:58:58;100926.59;;;20.79;42.29
62055;BME280;48653;51.742;-1.256;2023-07-13T09:01:27;100927.79;;;20.10;42.88
62055;BME280;48653;51.742;-1.256;2023-07-13T09:03:53;100929.80;;;20.92;41.69
62055;BME280;48653;51.742;-1.256;2023-07-13T09:06:14;100930.41;;;21.29;42.06
62055;BME280;48653;51.742;-1.256;2023-07-13T09:08:46;100930.96;;;21.36;41.40
62055;BME280;48653;51.742;-1.256;2023-07-13T09:11:12;100929.16;;;21.03;41.74
62055;BME280;48653;51.742;-1.256;2023-07-13T09:13:33;100928.65;;;21.37;41.24
62055;BME280;48653;51.742;-1.256;2023-07-13T09:15:53;100928.44;;;21.21;41.80
62055;BME280;48653;51.742;-1.256;2023-07-13T09:18:23;100930.88;;;20.75;42.13
62055;BME280;48653;51.742;-1.256;2023-07-13T09:20:48;100931.27;;;21.26;41.57
62055;BME280;48653;51.742;-1.256;2023-07-13T09:23:14;100935.99;;;21.37;41.95
62055;BME280;48653;51.742;-1.256;2023-07-13T09:25:35;100934.81;;;21.09;41.85
62055;BME280;48653;51.742;-1.256;2023-07-13T09:28:02;100935.04;;;21.23;41.75
62055;BME280;48653;51.742;-1.256;2023-07-13T09:30:32;100930.07;;;21.94;41.09
62055;BME280;48653;51.742;-1.256;2023-07-13T09:32:51;100931.69;;;20.99;41.07
62055;BME280;48653;51.742;-1.256;2023-07-13T09:35:17;100930.89;;;21.14;42.05
62055;BME280;48653;51.742;-1.256;2023-07-13T09:37:39;100929.90;;;21.76;40.48
62055;BME280;48653;51.742;-1.256;2023-07-13T09:40:08;100929.30;;;22.29;40.22
62055;BME280;48653;51.742;-1.256;2023-07-13T09:42:29;100936.73;;;21.71;40.51
62055;BME280;48653;51.742;-1.256;2023-07-13T09:44:56;100942.49;;;20.82;40.75
62055;BME280;48653;51.742;-1.256;2023-07-13T09:47:21;100941.34;;;20.92;40.60
62055;BME280;48653;51.742;-1.256;2023-07-13T09:49:44;100943.86;;;20.82;41.12
62055;BME280;48653;51.742;-1.256;2023-07-13T09:52:12;100947.72;;;20.72;40.85
62055;BME280;48653;51.742;-1.256;2023-07-13T09:54:35;100951.28;;;20.41;41.27
62055;BME280;48653;51.742;-1.256;2023-07-13T09:57:00;100960.79;;;20.37;42.50
62055;BME280;48653;51.742;-1.256;2023-07-13T09:59:30;100960.10;;;21.52;41.14
62055;BME280;48653;51.742;-1.256;2023-07-13T10:01:50;100959.32;;;20.93;42.31
62055;BME280;48653;51.742;-1.256;2023-07-13T10:04:18;100959.76;;;21.55;41.70
62055;BME280;48653;51.742;-1.256;2023-07-13T10:06:40;100959.28;;;21.79;41.73
62055;BME280;48653;51.742;-1.256;2023-07-13T10:09:07;100966.86;;;20.94;41.94
62055;BME280;48653;51.742;-1.256;2023-07-13T10:11:30;100962.54;;;21.09;41.20
62055;BME280;48653;51.742;-1.256;2023-07-13T10:13:56;100963.36;;;21.22;41.43
62055;BME280;48653;51.742;-1.256;2023-07-13T10:16:20;100963.11;;;20.95;41.23
62055;BME280;48653;51.742;-1.256;2023-07-13T10:18:48;100964.53;;;21.09;41.10
62055;BME280;48653;51.742;-1.256;2023-07-13T10:21:13;100963.06;;;21.11;40.65
62055;BME280;48653;51.742;-1.256;2023-07-13T10:23:35;100962.14;;;21.02;42.08
62055;BME280;48653;51.742;-1.256;2023-07-13T10:26:00;100963.40;;;20.85;41.73
62055;BME280;48653;51.742;-1.256;2023-07-13T10:28:28;100965.93;;;20.33;42.64
62055;BME280;48653;51.742;-1.256;2023-07-13T10:30:52;100965.89;;;20.57;41.90
62055;BME280;48653;51.742;-1.256;2023-07-13T10:33:15;100966.74;;;20.88;42.35
62055;BME280;48653;51.742;-1.256;2023-07-13T10:35:43;100969.37;;;20.53;41.97
62055;BME280;48653;51.742;-1.256;2023-07-13T10:38:07;100968.80;;;21.25;41.63
62055;BME280;48653;51.742;-1.256;2023-07-13T10:40:36;100969.35;;;21.61;40.87
62055;BME280;48653;51.742;-1.256;2023-07-13T10:42:56;100967.62;;;21.99;38.89
62055;BME280;48653;51.742;-1.256;2023-07-13T10:45:22;100971.65;;;21.52;40.50
62055;BME280;48653;51.742;-1.256;2023-07-13T10:47:46;100969.61;;;22.49;38.61
62055;BME280;48653;51.742;-1.256;2023-07-13T10:50:18;100974.14;;;22.46;39.82
62055;BME280;48653;51.742;-1.256;2023-07-13T10:52:43;100970.29;;;23.40;38.63
62055;BME280;48653;51.742;-1.256;2023-07-13T10:55:03;100976.63;;;21.75;40.51
62055;BME280;48653;51.742;-1.256;2023-07-13T10:57:25;100980.32;;;21.75;40.45
62055;BME280;48653;51.742;-1.256;2023-07-13T11:02:26;100971.62;;;21.72;39.45
62055;BME280;48653;51.742;-1.256;2023-07-13T11:04:43;100974.77;;;21.47;40.37
62055;BME280;48653;51.742;-1.256;2023-07-13T11:07:17;100970.78;;;21.92;40.09
62055;BME280;48653;51.742;-1.256;2023-07-13T11:09:34;100964.49;;;22.01;39.75
62055;BME280;48653;51.742;-1.256;2023-07-13T11:11:56;100973.33;;;20.74;39.80
62055;BME280;48653;51.742;-1.256;2023-07-13T11:14:28;100975.15;;;21.55;39.38
62055;BME280;48653;51.742;-1.256;2023-07-13T11:16:46;100972.35;;;21.85;38.87
62055;BME280;48653;51.742;-1.256;2023-07-13T11:19:26;100967.89;;;22.38;38.82
62055;BME280;48653;51.742;-1.256;2023-07-13T11:21:52;100969.34;;;21.77;38.17
62055;BME280;48653;51.742;-1.256;2023-07-13T11:24:03;100976.81;;;21.22;39.18
62055;BME280;48653;51.742;-1.256;2023-07-13T11:26:38;100969.41;;;22.45;38.58
62055;BME280;48653;51.742;-1.256;2023-07-13T11:28:51;100969.01;;;22.89;38.30
62055;BME280;48653;51.742;-1.256;2023-07-13T11:31:16;100973.87;;;22.25;38.58
62055;BME280;48653;51.742;-1.256;2023-07-13T11:33:52;100960.59;;;23.03;37.42
62055;BME280;48653;51.742;-1.256;2023-07-13T11:36:12;100956.23;;;23.40;37.67
62055;BME280;48653;51.742;-1.256;2023-07-13T11:38:35;100958.98;;;22.73;38.05
62055;BME280;48653;51.742;-1.256;2023-07-13T11:41:00;100956.51;;;23.14;37.07
62055;BME280;48653;51.742;-1.256;2023-07-13T11:43:23;100957.13;;;23.62;37.13
62055;BME280;48653;51.742;-1.256;2023-07-13T11:45:46;100954.99;;;23.63;36.17
62055;BME280;48653;51.742;-1.256;2023-07-13T11:48:22;100954.52;;;23.09;36.72
62055;BME280;48653;51.742;-1.256;2023-07-13T11:50:37;100956.66;;;23.54;35.84
62055;BME280;48653;51.742;-1.256;2023-07-13T11:53:02;100959.00;;;22.96;37.05
62055;BME280;48653;51.742;-1.256;2023-07-13T11:55:28;100957.82;;;23.05;36.05
62055;BME280;48653;51.742;-1.256;2023-07-13T11:57:56;100953.81;;;23.50;34.02
62055;BME280;48653;51.742;-1.256;2023-07-13T12:00:21;100958.77;;;23.23;34.41
62055;BME280;48653;51.742;-1.256;2023-07-13T12:02:45;100958.97;;;23.02;35.49
62055;BME280;48653;51.742;-1.256;2023-07-13T12:05:11;100960.25;;;21.22;36.17
62055;BME280;48653;51.742;-1.256;2023-07-13T12:07:34;100956.65;;;22.19;36.72
62055;BME280;48653;51.742;-1.256;2023-07-13T12:10:00;100962.01;;;22.64;36.38
62055;BME280;48653;51.742;-1.256;2023-07-13T12:12:28;100966.25;;;23.09;35.77
62055;BME280;48653;51.742;-1.256;2023-07-13T12:14:51;100957.77;;;23.60;35.58
62055;BME280;48653;51.742;-1.256;2023-07-13T12:17:18;100957.36;;;23.97;35.27
62055;BME280;48653;51.742;-1.256;2023-07-13T12:19:38;100953.31;;;23.50;35.57
62055;BME280;48653;51.742;-1.256;2023-07-13T12:22:03;100957.06;;;23.67;35.75
62055;BME280;48653;51.742;-1.256;2023-07-13T12:24:28;100964.27;;;24.37;35.83
62055;BME280;48653;51.742;-1.256;2023-07-13T12:26:58;100956.29;;;23.25;36.45
62055;BME280;48653;51.742;-1.256;2023-07-13T12:29:18;100956.39;;;24.50;36.98
62055;BME280;48653;51.742;-1.256;2023-07-13T12:31:45;100955.59;;;22.79;36.36
62055;BME280;48653;51.742;-1.256;2023-07-13T12:34:10;100956.51;;;22.11;37.18